Time;durP1;ratioP1;P1;durP2;ratioP2;P2;SDS_P1;SDS_P2;PMS_P1;PMS_P2;Temp;Humidity;BMP_temperature;BMP_pressure;BME280_temperature;BME280_humidity;BME280_pressure;Samples;Min_cycle;Max_cycle;Signal;HPM_P1;HPM_P2
2023/05/19 00:01:31;;;;;;;15.40;7.68;;;7.30;99.90;;;;;;4999150;28;20514;-82
2023/05/19 00:04:01;;;;;;;14.52;7.50;;;7.20;99.90;;;;;;4981497;28;20124;-82
2023/05/19 00:06:31;;;;;;;14.63;7.68;;;7.20;99.90;;;;;;4993809;28;20041;-82
2023/05/19 00:08:59;;;;;;;14.00;7.47;;;7.10;99.90;;;;;;4995889;28;20871;-82
2023/05/19 00:11:26;;;;;;;14.55;7.18;;;7.10;99.90;;;;;;4999122;28;20472;-82
2023/05/19 00:13:53;;;;;;;13.80;6.88;;;7.10;99.90;;;;;;4999934;28;20180;-82
2023/05/19 00:16:20;;;;;;;15.88;8.52;;;7.10;99.90;;;;;;4997199;28;20122;-82
2023/05/19 00:18:48;;;;;;;16.58;7.88;;;7.30;99.90;;;;;;4979578;28;20037;-82
2023/05/19 00:21:14;;;;;;;13.30;7.15;;;7.10;99.90;;;;;;4978987;28;20045;-82
2023/05/19 00:23:41;;;;;;;14.70;7.60;;;7.00;99.90;;;;;;5011946;28;20045;-82
2023/05/19 00:26:06;;;;;;;14.40;7.40;;;7.00;99.90;;;;;;4996261;28;20400;-82
2023/05/19 00:28:32;;;;;;;19.85;8.20;;;7.20;99.90;;;;;;5014235;28;20044;-82
2023/05/19 00:30:58;;;;;;;16.27;7.55;;;7.20;99.90;;;;;;4981983;28;20511;-82
2023/05/19 00:33:23;;;;;;;17.55;8.32;;;7.10;99.90;;;;;;4980448;28;20324;-83
2023/05/19 00:35:49;;;;;;;18.92;7.75;;;7.20;99.90;;;;;;4995726;28;20037;-82
2023/05/19 00:38:15;;;;;;;14.35;8.00;;;7.20;99.90;;;;;;4997150;28;20116;-83
2023/05/19 00:40:41;;;;;;;18.42;7.95;;;7.20;99.90;;;;;;4995360;28;20471;-82
2023/05/19 00:43:07;;;;;;;16.25;7.63;;;7.20;99.90;;;;;;5012426;28;20110;-82
2023/05/19 00:45:33;;;;;;;17.85;7.80;;;7.20;99.90;;;;;;4995371;28;20045;-83
2023/05/19 00:47:59;;;;;;;19.10;7.88;;;7.20;99.90;;;;;;4996383;28;20077;-82
2023/05/19 00:50:27;;;;;;;13.85;7.18;;;7.30;99.90;;;;;;4984743;28;20085;-82
2023/05/19 00:52:56;;;;;;;12.05;7.35;;;7.20;99.90;;;;;;4996078;28;20120;-82
2023/05/19 00:55:25;;;;;;;17.55;8.55;;;7.10;99.90;;;;;;4979893;28;20550;-83
2023/05/19 00:57:52;;;;;;;18.00;8.07;;;7.20;99.90;;;;;;5000895;28;20044;-83
2023/05/19 01:00:17;;;;;;;18.17;7.82;;;7.20;99.90;;;;;;4997911;28;20123;-83
2023/05/19 01:02:43;;;;;;;17.40;7.95;;;7.30;99.90;;;;;;5013041;28;20193;-83
2023/05/19 01:05:11;;;;;;;16.75;7.13;;;7.30;99.90;;;;;;5013198;28;20103;-83
2023/05/19 01:07:38;;;;;;;16.05;7.90;;;7.40;99.90;;;;;;5014651;28;20470;-83
2023/05/19 01:10:05;;;;;;;14.35;7.50;;;7.30;99.90;;;;;;4994068;28;20103;-83
2023/05/19 01:12:31;;;;;;;19.10;7.93;;;7.30;99.90;;;;;;4977981;28;20460;-82
2023/05/19 01:14:57;;;;;;;14.88;8.38;;;7.20;99.90;;;;;;4980524;28;20037;-83
2023/05/19 01:17:35;;;;;;;16.20;7.95;;;7.30;99.90;;;;;;4994985;28;20099;-82
2023/05/19 01:20:25;;;;;;;17.92;7.07;;;7.20;99.90;;;;;;5013049;28;20504;-83
2023/05/19 01:23:26;;;;;;;14.07;7.05;;;7.20;99.90;;;;;;4984813;28;20037;-82
2023/05/19 01:26:10;;;;;;;17.73;7.88;;;7.30;99.90;;;;;;4998640;28;20048;-82
2023/05/19 01:28:55;;;;;;;21.03;7.67;;;7.20;99.90;;;;;;5010955;28;20381;-82
2023/05/19 01:31:22;;;;;;;12.43;8.05;;;7.30;99.90;;;;;;4996439;28;20540;-83
2023/05/19 01:33:50;;;;;;;20.52;8.55;;;7.30;99.90;;;;;;4993806;28;20099;-82
2023/05/19 01:36:18;;;;;;;20.17;7.95;;;7.30;99.90;;;;;;4994477;28;20041;-82
2023/05/19 01:38:46;;;;;;;18.85;7.95;;;7.20;99.90;;;;;;4992686;28;20114;-82
2023/05/19 01:41:13;;;;;;;19.50;8.15;;;7.20;99.90;;;;;;4979373;28;20117;-82
2023/05/19 01:43:39;;;;;;;16.45;8.15;;;7.20;99.90;;;;;;5014328;28;20064;-82
2023/05/19 01:46:05;;;;;;;17.50;7.95;;;7.20;99.90;;;;;;4996467;28;20083;-82
2023/05/19 01:48:32;;;;;;;16.63;7.82;;;7.20;99.90;;;;;;4976752;28;20040;-82
2023/05/19 01:50:58;;;;;;;17.25;7.75;;;7.20;99.90;;;;;;4981073;28;20443;-82
2023/05/19 01:53:24;;;;;;;15.15;8.00;;;7.20;99.90;;;;;;4978904;28;20052;-82
2023/05/19 01:55:53;;;;;;;19.83;8.43;;;7.20;99.90;;;;;;4996024;28;20335;-82
2023/05/19 01:58:31;;;;;;;15.82;8.05;;;7.20;99.90;;;;;;4994596;28;20049;-82
2023/05/19 02:01:15;;;;;;;20.48;8.32;;;7.20;99.90;;;;;;5012426;28;20136;-82
2023/05/19 02:04:02;;;;;;;19.20;7.97;;;7.10;99.90;;;;;;4994149;28;20069;-82
2023/05/19 02:06:54;;;;;;;18.92;7.60;;;7.10;99.90;;;;;;4994509;28;20041;-82
2023/05/19 02:09:39;;;;;;;19.52;7.40;;;7.10;99.90;;;;;;4995908;28;20138;-82
2023/05/19 02:12:29;;;;;;;12.60;7.25;;;7.10;99.90;;;;;;4995308;28;20053;-83
2023/05/19 02:15:20;;;;;;;17.95;7.72;;;6.90;99.90;;;;;;4997696;28;20432;-82
2023/05/19 02:17:49;;;;;;;15.20;8.30;;;7.00;99.90;;;;;;4993755;28;20539;-82
2023/05/19 02:20:15;;;;;;;19.27;8.23;;;6.90;99.90;;;;;;4980451;28;20354;-82
2023/05/19 02:22:41;;;;;;;16.25;8.05;;;6.80;99.90;;;;;;4998614;28;20221;-82
2023/05/19 02:25:08;;;;;;;15.85;7.47;;;6.80;99.90;;;;;;4983024;28;20037;-82
2023/05/19 02:27:35;;;;;;;16.10;7.70;;;6.80;99.90;;;;;;4994938;28;20400;-82
2023/05/19 02:30:01;;;;;;;16.20;7.82;;;6.80;99.90;;;;;;5010443;28;20060;-82
2023/05/19 02:32:26;;;;;;;18.13;8.15;;;6.70;99.90;;;;;;4994918;28;20037;-82
2023/05/19 02:34:55;;;;;;;18.48;7.70;;;6.80;99.90;;;;;;4995398;28;20060;-82
2023/05/19 02:37:22;;;;;;;17.63;8.20;;;6.80;99.90;;;;;;5008606;28;20072;-82
2023/05/19 02:39:48;;;;;;;23.00;8.30;;;6.70;99.90;;;;;;4998293;28;20057;-82
2023/05/19 02:42:16;;;;;;;17.23;8.20;;;6.70;99.90;;;;;;5012819;28;20132;-82
2023/05/19 02:44:42;;;;;;;19.83;7.97;;;6.70;99.90;;;;;;4998966;28;20049;-82
2023/05/19 02:47:08;;;;;;;16.02;8.23;;;6.60;99.90;;;;;;4999162;28;20489;-82
2023/05/19 02:49:36;;;;;;;15.27;6.75;;;6.60;99.90;;;;;;5009508;28;20041;-82
2023/05/19 02:52:05;;;;;;;23.73;9.05;;;6.60;99.90;;;;;;4991201;28;20069;-82
2023/05/19 02:54:33;;;;;;;14.55;8.35;;;6.70;99.90;;;;;;4996115;28;20042;-82
2023/05/19 02:56:59;;;;;;;16.33;7.65;;;6.70;99.90;;;;;;4983768;28;20412;-82
2023/05/19 02:59:24;;;;;;;18.63;8.30;;;6.60;99.90;;;;;;5008155;28;20038;-82
2023/05/19 03:01:55;;;;;;;16.42;8.23;;;6.70;99.90;;;;;;4979632;28;20639;-82
2023/05/19 03:04:21;;;;;;;17.08;8.27;;;6.60;99.90;;;;;;4995834;28;20396;-82
2023/05/19 03:06:46;;;;;;;16.00;7.97;;;6.60;99.90;;;;;;4974917;28;20308;-82
2023/05/19 03:09:13;;;;;;;17.63;8.48;;;6.60;99.90;;;;;;4994670;28;20100;-82
2023/05/19 03:11:38;;;;;;;18.42;7.70;;;6.60;99.90;;;;;;5012510;28;20229;-82
2023/05/19 03:14:04;;;;;;;19.98;7.05;;;6.70;99.90;;;;;;4980746;28;20090;-82
2023/05/19 03:16:32;;;;;;;12.80;6.13;;;6.60;99.90;;;;;;5010714;28;20037;-82
2023/05/19 03:18:58;;;;;;;85.95;8.07;;;6.50;99.90;;;;;;4977458;28;20049;-82
2023/05/19 03:21:24;;;;;;;16.38;6.85;;;6.40;99.90;;;;;;5012205;28;20474;-82
2023/05/19 03:23:50;;;;;;;51.60;6.88;;;6.40;99.90;;;;;;4978987;28;20041;-82
2023/05/19 03:26:15;;;;;;;15.93;6.45;;;6.20;99.90;;;;;;4993090;28;20508;-82
2023/05/19 03:28:41;;;;;;;14.95;6.68;;;6.20;99.90;;;;;;4992226;28;20442;-82
2023/05/19 03:31:07;;;;;;;19.08;7.50;;;6.20;99.90;;;;;;4994016;28;20042;-82
2023/05/19 03:33:32;;;;;;;17.45;5.97;;;6.20;99.90;;;;;;5010458;28;20048;-82
2023/05/19 03:35:58;;;;;;;17.80;7.97;;;6.20;99.90;;;;;;4976361;28;20037;-82
2023/05/19 03:38:24;;;;;;;14.70;7.50;;;6.30;99.90;;;;;;4991068;28;20124;-82
2023/05/19 03:40:49;;;;;;;17.60;8.60;;;6.40;99.90;;;;;;5014594;28;20038;-82
2023/05/19 03:43:15;;;;;;;16.92;8.85;;;6.40;99.90;;;;;;4991438;28;20098;-82
2023/05/19 03:45:43;;;;;;;23.58;9.07;;;6.50;99.90;;;;;;5016868;28;20045;-82
2023/05/19 03:48:09;;;;;;;25.20;9.25;;;6.70;99.90;;;;;;4982937;28;20245;-82
2023/05/19 03:50:36;;;;;;;18.80;8.45;;;6.70;99.90;;;;;;4979155;28;20117;-82
2023/05/19 03:53:02;;;;;;;20.30;8.85;;;6.70;99.90;;;;;;4984275;28;20062;-82
2023/05/19 03:55:28;;;;;;;20.08;8.65;;;6.70;99.90;;;;;;4978926;28;20060;-82
2023/05/19 03:57:55;;;;;;;16.73;8.18;;;6.70;99.90;;;;;;4996721;28;20044;-82
2023/05/19 04:00:26;;;;;;;16.77;7.90;;;6.70;99.90;;;;;;4997288;28;20041;-82
2023/05/19 04:02:52;;;;;;;17.10;8.40;;;6.70;99.90;;;;;;4997971;28;20489;-82
2023/05/19 04:05:17;;;;;;;16.55;7.60;;;6.60;99.90;;;;;;4996763;28;20072;-81
2023/05/19 04:07:45;;;;;;;23.25;8.15;;;6.70;99.90;;;;;;4996945;28;20076;-82
2023/05/19 04:10:11;;;;;;;17.35;7.60;;;6.80;99.90;;;;;;4983200;28;20029;-82
2023/05/19 04:12:40;;;;;;;17.77;7.70;;;6.70;99.90;;;;;;4996951;28;20049;-82
2023/05/19 04:15:10;;;;;;;19.00;8.35;;;6.70;99.90;;;;;;4986292;28;20046;-82
2023/05/19 04:17:35;;;;;;;24.48;8.20;;;6.80;99.90;;;;;;5002023;28;20259;-82
2023/05/19 04:20:01;;;;;;;19.23;8.57;;;6.90;99.90;;;;;;4987950;28;20121;-82
2023/05/19 04:22:27;;;;;;;20.15;8.38;;;7.00;99.90;;;;;;5009472;28;20443;-81
2023/05/19 04:24:53;;;;;;;19.40;8.43;;;7.10;99.90;;;;;;4999369;28;20048;-82
2023/05/19 04:27:20;;;;;;;14.52;8.52;;;7.20;99.90;;;;;;4995991;28;20136;-82
2023/05/19 04:29:47;;;;;;;17.20;9.00;;;7.20;99.90;;;;;;4980703;28;20048;-82
2023/05/19 04:32:16;;;;;;;22.27;8.65;;;7.30;99.90;;;;;;5009916;28;20489;-82
2023/05/19 04:34:44;;;;;;;20.83;8.50;;;7.40;99.90;;;;;;4996396;28;20080;-81
2023/05/19 04:37:13;;;;;;;20.60;9.02;;;7.60;99.90;;;;;;5013195;28;20049;-82
2023/05/19 04:39:42;;;;;;;20.17;7.85;;;7.70;99.90;;;;;;4998844;28;20038;-81
2023/05/19 04:42:09;;;;;;;19.40;9.02;;;7.70;99.90;;;;;;4980123;28;20100;-82
2023/05/19 04:44:38;;;;;;;21.45;9.50;;;7.80;99.90;;;;;;4993503;28;20375;-82
2023/05/19 04:47:10;;;;;;;18.67;8.18;;;7.90;99.90;;;;;;4999078;28;20220;-81
2023/05/19 04:49:37;;;;;;;20.30;8.98;;;8.10;99.90;;;;;;5012285;28;20042;-82
2023/05/19 04:52:09;;;;;;;18.67;8.57;;;8.30;99.90;;;;;;4983314;28;20044;-82
2023/05/19 04:54:38;;;;;;;18.70;8.68;;;8.40;99.90;;;;;;4997863;28;20033;-82
2023/05/19 04:57:04;;;;;;;18.67;8.00;;;8.50;99.90;;;;;;4993804;28;20049;-82
2023/05/19 04:59:30;;;;;;;16.63;7.68;;;8.70;99.90;;;;;;4999859;28;20033;-82
2023/05/19 05:01:56;;;;;;;17.08;8.10;;;8.80;99.90;;;;;;4994615;28;20037;-82
2023/05/19 05:04:22;;;;;;;17.85;8.23;;;8.80;99.90;;;;;;5000365;28;20520;-82
2023/05/19 05:06:49;;;;;;;19.17;8.30;;;8.90;99.90;;;;;;4995055;28;20121;-82
2023/05/19 05:09:15;;;;;;;22.20;9.00;;;9.10;99.90;;;;;;4977629;28;20038;-82
2023/05/19 05:11:42;;;;;;;19.15;8.40;;;9.20;99.90;;;;;;5013006;28;20089;-82
2023/05/19 05:14:08;;;;;;;16.60;9.45;;;9.40;99.90;;;;;;4993997;28;20517;-81
2023/05/19 05:16:34;;;;;;;19.77;8.15;;;9.50;99.90;;;;;;4996963;28;20037;-82
2023/05/19 05:19:01;;;;;;;22.13;7.90;;;9.50;99.90;;;;;;4974834;28;20116;-82
2023/05/19 05:21:27;;;;;;;17.90;8.20;;;9.70;99.90;;;;;;4993235;28;20045;-82
2023/05/19 05:23:53;;;;;;;16.38;7.60;;;9.70;99.90;;;;;;5010869;28;20118;-82
2023/05/19 05:26:21;;;;;;;16.70;7.93;;;9.80;99.90;;;;;;4993680;28;20470;-82
2023/05/19 05:28:48;;;;;;;16.98;7.65;;;9.90;99.90;;;;;;5002546;28;20055;-82
2023/05/19 05:31:14;;;;;;;16.88;8.23;;;10.00;99.90;;;;;;4986392;28;20561;-82
2023/05/19 05:33:40;;;;;;;13.55;7.20;;;10.20;99.90;;;;;;4993876;28;20041;-82
2023/05/19 05:36:06;;;;;;;18.85;8.10;;;10.30;99.90;;;;;;4995756;28;20401;-83
2023/05/19 05:38:32;;;;;;;18.80;8.27;;;10.30;99.90;;;;;;4997981;28;20037;-82
2023/05/19 05:40:58;;;;;;;17.55;8.35;;;10.40;99.90;;;;;;4979545;28;20042;-82
2023/05/19 05:43:23;;;;;;;14.55;7.82;;;10.50;99.90;;;;;;4976256;28;20045;-81
2023/05/19 05:45:49;;;;;;;17.38;7.40;;;10.60;99.90;;;;;;4975846;28;20076;-82
2023/05/19 05:48:15;;;;;;;15.88;7.43;;;10.70;99.90;;;;;;4981088;28;20060;-82
2023/05/19 05:50:44;;;;;;;10.57;6.95;;;10.60;99.90;;;;;;4992485;28;20164;-82
2023/05/19 05:53:19;;;;;;;10.85;7.43;;;10.70;99.90;;;;;;5014099;28;20052;-82
2023/05/19 05:55:46;;;;;;;16.67;7.65;;;10.80;99.90;;;;;;4996883;28;20490;-82
2023/05/19 05:58:13;;;;;;;12.13;7.03;;;10.80;99.90;;;;;;4979895;28;20056;-82
2023/05/19 06:00:42;;;;;;;14.25;6.82;;;10.80;99.90;;;;;;4997286;28;20037;-81
2023/05/19 06:03:08;;;;;;;12.10;6.85;;;10.80;99.90;;;;;;4992191;28;20143;-82
2023/05/19 06:05:34;;;;;;;15.02;6.85;;;10.80;99.90;;;;;;4983766;28;20049;-82
2023/05/19 06:08:00;;;;;;;13.90;6.70;;;10.90;99.90;;;;;;5013624;28;20049;-82
2023/05/19 06:10:27;;;;;;;11.73;6.50;;;11.00;99.90;;;;;;4978722;28;20042;-82
2023/05/19 06:12:56;;;;;;;13.10;5.57;;;11.10;99.90;;;;;;5006428;28;20093;-82
2023/05/19 06:15:22;;;;;;;11.60;6.00;;;11.00;99.90;;;;;;4990265;28;20037;-82
2023/05/19 06:17:48;;;;;;;15.75;6.15;;;11.20;99.90;;;;;;4987861;28;20449;-82
2023/05/19 06:20:14;;;;;;;15.50;5.80;;;11.20;99.90;;;;;;4990345;28;20129;-82
2023/05/19 06:22:39;;;;;;;12.15;5.90;;;11.30;99.90;;;;;;4990162;28;20052;-82
2023/05/19 06:25:07;;;;;;;16.27;6.53;;;11.40;99.90;;;;;;4995739;28;20137;-82
2023/05/19 06:27:34;;;;;;;15.85;6.75;;;11.40;99.90;;;;;;4975909;28;20034;-82
2023/05/19 06:29:59;;;;;;;11.60;5.93;;;11.50;99.90;;;;;;4977538;28;20176;-82
2023/05/19 06:32:25;;;;;;;14.48;6.10;;;11.50;99.90;;;;;;4980531;28;20459;-82
2023/05/19 06:34:53;;;;;;;14.75;6.53;;;11.70;99.90;;;;;;4981423;28;20038;-82
2023/05/19 06:37:21;;;;;;;12.85;5.97;;;11.80;99.90;;;;;;4989576;28;20074;-81
2023/05/19 06:39:50;;;;;;;14.75;5.88;;;11.90;99.90;;;;;;4991405;28;20038;-82
2023/05/19 06:42:20;;;;;;;13.82;5.88;;;11.90;99.90;;;;;;4989472;28;20456;-82
2023/05/19 06:44:47;;;;;;;17.38;6.55;;;12.00;99.90;;;;;;4979784;28;20030;-82
2023/05/19 06:47:12;;;;;;;13.90;6.40;;;12.20;99.90;;;;;;4988464;28;20096;-82
2023/05/19 06:49:38;;;;;;;8.65;5.55;;;12.20;99.90;;;;;;4997537;28;20030;-82
2023/05/19 06:52:04;;;;;;;14.07;6.05;;;12.20;99.90;;;;;;4990746;28;20041;-83
2023/05/19 06:54:30;;;;;;;12.15;5.57;;;12.30;99.90;;;;;;5010209;28;20064;-82
2023/05/19 06:56:55;;;;;;;12.57;5.35;;;12.40;99.90;;;;;;4994989;28;20242;-82
2023/05/19 06:59:21;;;;;;;15.30;5.40;;;12.40;99.90;;;;;;4990429;28;20955;-81
2023/05/19 07:01:47;;;;;;;13.38;5.78;;;12.50;99.90;;;;;;4990546;28;20127;-81
2023/05/19 07:04:13;;;;;;;9.77;4.95;;;12.60;99.90;;;;;;4992587;28;20413;-82
2023/05/19 07:06:39;;;;;;;14.50;5.50;;;12.70;99.90;;;;;;4987641;28;20112;-82
2023/05/19 07:09:05;;;;;;;11.90;4.57;;;12.80;99.90;;;;;;4991128;28;20084;-82
2023/05/19 07:11:30;;;;;;;12.02;4.88;;;12.80;99.90;;;;;;4995736;28;20152;-82
2023/05/19 07:13:56;;;;;;;10.98;4.47;;;12.90;99.90;;;;;;5011800;28;20055;-82
2023/05/19 07:16:22;;;;;;;10.55;4.30;;;13.10;99.90;;;;;;4975869;28;20048;-82
2023/05/19 07:18:47;;;;;;;13.55;4.18;;;13.10;99.90;;;;;;5011190;28;20038;-82
2023/05/19 07:21:13;;;;;;;10.45;4.18;;;13.20;99.90;;;;;;4997511;28;20190;-82
2023/05/19 07:23:39;;;;;;;18.33;4.90;;;13.30;99.90;;;;;;4984900;28;20417;-83
2023/05/19 07:26:05;;;;;;;10.32;4.05;;;13.30;99.90;;;;;;4996183;28;20045;-82
2023/05/19 07:28:30;;;;;;;9.60;3.80;;;13.40;99.90;;;;;;4996623;28;20045;-82
2023/05/19 07:30:56;;;;;;;10.38;4.03;;;13.60;99.90;;;;;;4994028;28;20077;-82
2023/05/19 07:33:21;;;;;;;10.60;4.25;;;13.70;99.90;;;;;;4985172;28;20112;-82
2023/05/19 07:35:47;;;;;;;12.38;4.07;;;13.80;99.90;;;;;;5014311;28;20037;-82
2023/05/19 07:38:16;;;;;;;8.32;4.43;;;13.90;99.90;;;;;;4982891;28;20042;-82
2023/05/19 07:40:41;;;;;;;8.10;3.78;;;14.00;99.90;;;;;;4999946;28;20063;-82
2023/05/19 07:43:07;;;;;;;8.68;3.45;;;14.00;99.90;;;;;;4993857;28;20037;-82
2023/05/19 07:45:36;;;;;;;9.52;3.58;;;14.00;99.90;;;;;;4984440;28;20395;-82
2023/05/19 07:48:02;;;;;;;7.60;3.30;;;14.10;6.70;;;;;;4981850;28;20435;-82
2023/05/19 07:50:28;;;;;;;5.97;3.30;;;14.20;99.90;;;;;;5015787;28;20045;-82
2023/05/19 07:52:54;;;;;;;8.18;3.75;;;14.40;1.00;;;;;;5017240;28;20045;-82
2023/05/19 07:55:21;;;;;;;8.15;3.70;;;14.40;99.90;;;;;;4997028;28;20041;-82
2023/05/19 07:57:48;;;;;;;11.98;3.85;;;14.50;99.90;;;;;;5009211;28;20515;-82
2023/05/19 08:00:15;;;;;;;5.30;2.97;;;14.40;99.90;;;;;;4992697;28;20345;-82
2023/05/19 08:02:40;;;;;;;9.77;3.30;;;14.60;99.90;;;;;;4976634;28;20178;-83
2023/05/19 08:05:08;;;;;;;8.77;3.25;;;14.60;1.00;;;;;;5012284;28;20133;-82
2023/05/19 08:07:34;;;;;;;7.28;3.13;;;14.70;1.00;;;;;;4995000;28;20090;-83
2023/05/19 08:09:59;;;;;;;6.45;3.00;;;14.80;99.90;;;;;;4980294;28;20456;-83
2023/05/19 08:12:25;;;;;;;6.95;3.05;;;14.80;99.90;;;;;;4993118;28;20468;-83
2023/05/19 08:14:51;;;;;;;10.02;3.25;;;15.00;99.90;;;;;;4994944;28;20050;-83
2023/05/19 08:17:17;;;;;;;6.40;3.25;;;15.20;99.90;;;;;;4982203;28;20041;-83
2023/05/19 08:19:43;;;;;;;5.68;2.90;;;15.10;99.90;;;;;;4979652;28;20107;-83
2023/05/19 08:22:08;;;;;;;7.68;3.03;;;15.20;99.90;;;;;;4994409;28;20037;-83
2023/05/19 08:24:34;;;;;;;10.27;3.00;;;15.20;99.90;;;;;;4995151;28;20128;-83
2023/05/19 08:27:00;;;;;;;9.55;3.55;;;15.40;76.10;;;;;;4981059;28;20084;-83
2023/05/19 08:29:28;;;;;;;6.13;2.75;;;15.40;99.90;;;;;;4995001;28;20037;-83
2023/05/19 08:31:54;;;;;;;5.65;2.80;;;15.30;27.70;;;;;;4975308;28;20333;-83
2023/05/19 08:34:19;;;;;;;5.90;3.00;;;15.30;1.00;;;;;;4978808;28;20391;-82
2023/05/19 08:36:46;;;;;;;7.97;3.05;;;15.40;9.30;;;;;;4976090;28;20041;-83
2023/05/19 08:39:13;;;;;;;5.93;2.90;;;15.70;1.00;;;;;;4998127;28;20044;-83
2023/05/19 08:41:38;;;;;;;6.10;2.70;;;15.70;99.90;;;;;;4995501;28;20467;-83
2023/05/19 08:44:04;;;;;;;8.93;2.65;;;16.00;1.00;;;;;;5015428;28;20288;-83
2023/05/19 08:46:30;;;;;;;5.75;3.05;;;15.80;99.90;;;;;;4976565;28;20104;-84
2023/05/19 08:49:03;;;;;;;11.88;3.10;;;15.80;99.90;;;;;;5012482;28;20057;-83
2023/05/19 08:51:40;;;;;;;4.90;2.45;;;16.10;99.90;;;;;;4996125;28;20046;-83
2023/05/19 08:54:17;;;;;;;6.63;2.50;;;16.00;71.50;;;;;;5001102;28;20154;-83
2023/05/19 08:56:44;;;;;;;6.45;2.80;;;16.30;99.90;;;;;;4976273;28;20044;-83
2023/05/19 08:59:13;;;;;;;5.70;2.50;;;16.40;1.00;;;;;;4994450;28;20041;-83
2023/05/19 09:01:45;;;;;;;8.88;2.80;;;16.20;99.90;;;;;;5000935;28;20090;-82
2023/05/19 09:04:11;;;;;;;6.95;2.50;;;16.00;99.90;;;;;;4992012;28;20049;-83
2023/05/19 09:06:41;;;;;;;9.55;2.50;;;16.40;99.90;;;;;;4997438;28;20187;-83
2023/05/19 09:09:07;;;;;;;6.88;2.80;;;16.40;99.90;;;;;;4999641;28;20041;-83
2023/05/19 09:11:36;;;;;;;6.93;3.00;;;16.50;99.90;;;;;;4979418;28;20064;-83
2023/05/19 09:14:02;;;;;;;6.13;2.90;;;16.70;99.90;;;;;;4978620;28;20381;-83
2023/05/19 09:16:28;;;;;;;5.38;2.75;;;16.80;99.90;;;;;;4996681;28;20121;-84
2023/05/19 09:18:55;;;;;;;7.43;2.65;;;16.80;99.90;;;;;;4980125;28;20132;-83
2023/05/19 09:21:29;;;;;;;9.30;2.65;;;16.60;99.90;;;;;;4996431;28;20056;-83
2023/05/19 09:24:07;;;;;;;5.43;2.35;;;16.50;99.90;;;;;;4996195;28;20381;-84
2023/05/19 09:26:38;;;;;;;7.03;2.88;;;16.70;11.30;;;;;;4995982;28;20041;-83
2023/05/19 09:29:17;;;;;;;6.50;2.80;;;16.20;1.00;;;;;;4981043;28;20060;-83
2023/05/19 09:31:54;;;;;;;6.35;2.50;;;16.30;1.00;;;;;;4989984;28;20041;-84
2023/05/19 09:34:23;;;;;;;7.60;2.72;;;15.90;99.90;;;;;;4979213;28;20091;-84
2023/05/19 09:36:50;;;;;;;5.40;2.17;;;16.00;99.90;;;;;;4978914;28;20118;-83
2023/05/19 09:39:18;;;;;;;5.85;2.40;;;16.60;99.90;;;;;;5017516;28;20041;-83
2023/05/19 09:41:44;;;;;;;9.20;3.13;;;17.00;1.00;;;;;;4983714;28;20033;-83
2023/05/19 09:44:22;;;;;;;5.68;2.10;;;17.30;1.00;;;;;;4978691;28;20037;-83
2023/05/19 09:46:52;;;;;;;7.60;2.70;;;17.50;99.90;;;;;;4977533;28;20397;-83
2023/05/19 09:49:22;;;;;;;4.57;2.17;;;17.50;99.90;;;;;;4991361;28;20128;-83
2023/05/19 09:51:59;;;;;;;4.78;2.45;;;17.30;99.90;;;;;;4994051;28;20038;-84
2023/05/19 09:54:30;;;;;;;5.50;2.30;;;16.90;99.90;;;;;;5011613;28;20060;-83
2023/05/19 09:57:06;;;;;;;6.32;2.50;;;17.00;99.90;;;;;;4972650;28;20040;-84
2023/05/19 09:59:32;;;;;;;4.53;1.92;;;17.50;99.90;;;;;;4979783;28;20485;-83
2023/05/19 10:02:01;;;;;;;8.15;2.40;;;17.60;99.90;;;;;;4998287;28;20374;-83
2023/05/19 10:04:28;;;;;;;4.10;2.05;;;17.70;99.90;;;;;;4986073;28;20378;-84
2023/05/19 10:06:58;;;;;;;4.18;2.10;;;17.70;99.90;;;;;;4998394;28;20468;-83
2023/05/19 10:09:26;;;;;;;7.25;2.47;;;17.70;99.90;;;;;;4999412;28;20438;-83
2023/05/19 10:11:53;;;;;;;4.78;2.22;;;17.40;99.90;;;;;;4978668;28;20588;-83
2023/05/19 10:14:28;;;;;;;8.23;2.60;;;17.20;94.00;;;;;;4991486;28;20051;-83
2023/05/19 10:16:56;;;;;;;4.43;2.17;;;17.00;26.30;;;;;;5012327;28;20048;-83
2023/05/19 10:19:24;;;;;;;6.72;2.40;;;17.40;84.20;;;;;;4993780;28;20261;-83
2023/05/19 10:21:50;;;;;;;4.55;2.03;;;17.80;99.90;;;;;;4991878;28;20052;-84
2023/05/19 10:24:17;;;;;;;4.90;2.10;;;17.50;48.60;;;;;;5013623;28;20079;-82
2023/05/19 10:27:06;;;;;;;5.13;2.00;;;17.20;1.00;;;;;;4995203;28;20041;-83
2023/05/19 10:29:35;;;;;;;5.82;2.17;;;17.60;41.00;;;;;;5011914;28;20500;-83
2023/05/19 10:32:11;;;;;;;5.65;2.53;;;17.80;31.70;;;;;;5004300;28;20476;-83
2023/05/19 10:34:52;;;;;;;7.82;2.53;;;18.30;91.10;;;;;;5013456;28;20040;-83
2023/05/19 10:37:47;;;;;;;7.60;2.40;;;18.20;35.00;;;;;;4979731;28;20425;-83
2023/05/19 10:41:10;;;;;;;6.00;2.40;;;17.40;1.00;;;;;;5010541;28;20041;-84
2023/05/19 10:43:53;;;;;;;4.97;2.40;;;18.00;1.00;;;;;;4953916;28;20051;-83
2023/05/19 10:46:26;;;;;;;7.60;2.55;;;18.50;2.90;;;;;;4964669;28;20089;-84
2023/05/19 10:48:52;;;;;;;6.43;2.78;;;18.40;1.00;;;;;;4985061;28;20060;-83
2023/05/19 10:51:29;;;;;;;8.57;2.60;;;18.70;1.00;;;;;;4993594;28;20041;-84
2023/05/19 10:53:54;;;;;;;6.25;2.58;;;19.20;77.30;;;;;;4994150;28;20039;-84
2023/05/19 10:56:35;;;;;;;8.25;2.63;;;18.70;1.00;;;;;;4978071;28;20041;-84
2023/05/19 10:59:03;;;;;;;6.45;2.72;;;19.40;71.30;;;;;;4981691;28;20038;-83
2023/05/19 11:01:34;;;;;;;8.32;2.80;;;19.30;1.00;;;;;;5011915;28;20083;-83
2023/05/19 11:04:13;;;;;;;7.70;2.70;;;19.20;1.00;;;;;;5012161;28;20142;-84
2023/05/19 11:06:40;;;;;;;8.20;2.85;;;19.00;1.00;;;;;;5013295;28;20438;-84
2023/05/19 11:09:16;;;;;;;6.18;2.78;;;18.90;1.00;;;;;;4994620;28;20097;-84
2023/05/19 11:11:50;;;;;;;7.15;2.88;;;19.20;1.00;;;;;;4975321;28;20351;-84
2023/05/19 11:14:24;;;;;;;6.05;2.45;;;19.40;1.00;;;;;;4994080;28;20050;-84
2023/05/19 11:16:51;;;;;;;8.30;2.80;;;19.30;1.00;;;;;;4990784;28;20441;-84
2023/05/19 11:19:26;;;;;;;4.55;2.60;;;19.70;1.00;;;;;;4991829;28;20459;-83
2023/05/19 11:21:56;;;;;;;7.72;2.70;;;19.10;1.00;;;;;;4995133;28;20136;-83
2023/05/19 11:24:44;;;;;;;5.90;2.88;;;18.70;1.00;;;;;;4981424;28;20068;-83
2023/05/19 11:27:27;;;;;;;10.20;2.70;;;19.50;1.00;;;;;;4994385;28;20045;-83
2023/05/19 11:29:55;;;;;;;6.15;3.08;;;20.10;1.00;;;;;;5014492;28;20034;-84
2023/05/19 11:32:24;;;;;;;6.18;2.92;;;20.20;1.00;;;;;;4981147;28;20030;-83
2023/05/19 11:34:50;;;;;;;6.88;2.65;;;20.40;1.00;;;;;;5010917;28;20117;-84
2023/05/19 11:37:20;;;;;;;6.45;3.03;;;20.30;1.00;;;;;;4990800;28;20048;-84
2023/05/19 11:39:46;;;;;;;5.78;3.25;;;20.30;1.00;;;;;;4977815;28;20493;-83
2023/05/19 11:42:12;;;;;;;5.20;2.80;;;20.50;1.00;;;;;;4978380;28;20068;-84
2023/05/19 11:44:44;;;;;;;7.93;2.75;;;20.50;1.00;;;;;;4979470;28;20088;-83
2023/05/19 11:47:11;;;;;;;6.28;3.20;;;20.00;1.00;;;;;;5007968;28;20107;-84
2023/05/19 11:49:37;;;;;;;4.78;2.80;;;19.80;99.90;;;;;;5000934;28;20041;-83
2023/05/19 11:52:03;;;;;;;8.25;2.90;;;20.20;1.00;;;;;;5010814;28;20350;-84
2023/05/19 11:54:31;;;;;;;7.60;3.50;;;20.00;99.90;;;;;;4992930;28;20030;-84
2023/05/19 11:57:02;;;;;;;7.47;2.80;;;19.50;99.90;;;;;;5015493;28;20056;-84
2023/05/19 11:59:38;;;;;;;8.80;3.08;;;20.00;99.90;;;;;;4991641;28;20129;-84
2023/05/19 12:02:26;;;;;;;7.30;2.78;;;20.00;99.90;;;;;;4995046;28;20256;-84
2023/05/19 12:04:53;;;;;;;8.00;2.80;;;19.40;99.90;;;;;;4983333;28;20045;-84
2023/05/19 12:07:23;;;;;;;6.85;3.17;;;20.30;99.90;;;;;;4997016;28;20588;-84
2023/05/19 12:09:50;;;;;;;8.70;3.15;;;19.40;99.90;;;;;;4982344;28;20038;-84
2023/05/19 12:12:21;;;;;;;5.82;2.80;;;19.80;99.90;;;;;;5004438;28;20054;-85
2023/05/19 12:14:49;;;;;;;6.70;2.95;;;19.80;99.90;;;;;;4993876;28;20109;-84
2023/05/19 12:17:18;;;;;;;6.55;3.03;;;20.20;99.90;;;;;;4993783;28;20133;-84
2023/05/19 12:19:45;;;;;;;7.00;3.15;;;19.50;99.90;;;;;;4991078;28;20485;-84
2023/05/19 12:22:12;;;;;;;6.90;3.10;;;19.20;99.90;;;;;;4992161;28;20049;-84
2023/05/19 12:24:39;;;;;;;8.95;3.08;;;19.60;99.90;;;;;;4986595;28;20048;-84
2023/05/19 12:27:15;;;;;;;5.95;2.95;;;20.10;99.90;;;;;;4994258;28;20315;-84
2023/05/19 12:29:41;;;;;;;7.10;3.20;;;20.30;99.90;;;;;;5003211;28;20065;-84
2023/05/19 12:32:08;;;;;;;5.10;2.97;;;19.60;99.90;;;;;;4993844;28;20042;-83
2023/05/19 12:34:37;;;;;;;8.77;3.55;;;19.50;99.90;;;;;;4993058;28;20557;-84
2023/05/19 12:37:04;;;;;;;7.85;3.15;;;19.40;99.90;;;;;;4996115;28;20351;-84
2023/05/19 12:39:31;;;;;;;12.48;3.63;;;20.40;99.90;;;;;;4990984;28;20072;-84
2023/05/19 12:42:07;;;;;;;8.85;3.75;;;20.70;99.90;;;;;;4988824;28;20440;-84
2023/05/19 12:44:53;;;;;;;8.88;3.17;;;19.90;99.90;;;;;;4979635;28;20048;-85
2023/05/19 12:47:33;;;;;;;7.95;3.72;;;19.90;99.90;;;;;;4979933;28;20097;-83
2023/05/19 12:50:00;;;;;;;9.32;3.58;;;19.30;99.90;;;;;;4995740;28;20039;-84
2023/05/19 12:52:28;;;;;;;8.45;3.63;;;19.50;99.90;;;;;;4995114;28;20037;-84
2023/05/19 12:55:05;;;;;;;8.77;3.10;;;19.60;99.90;;;;;;5008389;28;20134;-84